Time;durP1;ratioP1;P1;durP2;ratioP2;P2;SDS_P1;SDS_P2;PMS_P1;PMS_P2;Temp;Humidity;BMP_temperature;BMP_pressure;BME280_temperature;BME280_humidity;BME280_pressure;Samples;Min_cycle;Max_cycle;Signal;HPM_P1;HPM_P2
2022/09/09 00:00:27;;;;;;;5.75;3.50;;;23.00;71.30;;;;;;5062527;28;20689;-79
2022/09/09 00:03:03;;;;;;;6.57;3.83;;;23.00;71.30;;;;;;5061510;28;20733;-78
2022/09/09 00:05:40;;;;;;;7.72;3.70;;;22.90;71.30;;;;;;5068150;28;20646;-79
2022/09/09 00:08:19;;;;;;;7.30;3.83;;;22.90;71.40;;;;;;5066768;28;20214;-78
2022/09/09 00:10:51;;;;;;;9.00;4.28;;;22.90;71.60;;;;;;5067955;28;20556;-79
2022/09/09 00:13:25;;;;;;;5.68;3.58;;;22.90;71.70;;;;;;5063522;28;20194;-79
2022/09/09 00:16:01;;;;;;;7.47;4.13;;;22.80;71.90;;;;;;5068290;28;20221;-79
2022/09/09 00:18:37;;;;;;;7.32;3.83;;;22.80;71.90;;;;;;5067212;28;20643;-78
2022/09/09 00:21:08;;;;;;;4.82;3.70;;;22.80;72.00;;;;;;5069631;28;20326;-79
2022/09/09 00:23:40;;;;;;;7.22;3.80;;;22.80;72.10;;;;;;5067057;28;20211;-79
2022/09/09 00:26:15;;;;;;;7.10;4.00;;;22.80;72.20;;;;;;5063465;28;20689;-79
2022/09/09 00:28:50;;;;;;;8.23;3.92;;;22.70;72.30;;;;;;5059180;28;20635;-79
2022/09/09 00:31:24;;;;;;;4.07;3.30;;;22.70;72.60;;;;;;5051059;28;20281;-77
2022/09/09 00:33:54;;;;;;;6.18;4.03;;;22.70;72.70;;;;;;5056746;28;20197;-79
2022/09/09 00:36:26;;;;;;;7.07;3.70;;;22.60;72.70;;;;;;5069771;28;20214;-79
2022/09/09 00:38:59;;;;;;;7.65;4.00;;;22.50;73.00;;;;;;5062580;28;20248;-79
2022/09/09 00:41:42;;;;;;;8.23;3.97;;;22.50;73.30;;;;;;5060561;28;20598;-78
2022/09/09 00:44:26;;;;;;;8.70;4.63;;;22.40;73.40;;;;;;5064678;28;20226;-79
2022/09/09 00:47:08;;;;;;;5.25;3.72;;;22.50;73.50;;;;;;5067100;28;20709;-79
2022/09/09 00:49:49;;;;;;;6.90;4.35;;;22.40;73.80;;;;;;5070553;28;20241;-78
2022/09/09 00:52:29;;;;;;;5.63;4.10;;;22.30;73.80;;;;;;5068335;28;20226;-79
2022/09/09 00:55:07;;;;;;;7.10;4.43;;;22.30;74.00;;;;;;5060612;28;20960;-79
2022/09/09 00:57:37;;;;;;;8.20;4.25;;;22.20;74.10;;;;;;5061588;28;20245;-79
2022/09/09 01:00:23;;;;;;;7.40;4.53;;;22.20;74.10;;;;;;5068284;28;21997;-80
2022/09/09 01:03:02;;;;;;;6.45;4.35;;;22.20;74.40;;;;;;5063385;28;20210;-78
2022/09/09 01:05:37;;;;;;;6.10;4.32;;;22.10;74.60;;;;;;5061755;28;20243;-78
2022/09/09 01:08:16;;;;;;;9.65;4.38;;;22.10;74.80;;;;;;5065135;28;20185;-79
2022/09/09 01:10:53;;;;;;;5.80;4.47;;;22.00;74.90;;;;;;5063507;28;20226;-79
2022/09/09 01:13:26;;;;;;;6.95;4.88;;;22.00;74.90;;;;;;5064976;28;20610;-79
2022/09/09 01:15:55;;;;;;;5.97;4.43;;;22.00;75.00;;;;;;5068802;28;20241;-80
2022/09/09 01:18:34;;;;;;;11.05;5.13;;;22.00;75.30;;;;;;5065927;28;20203;-79
2022/09/09 01:21:10;;;;;;;9.27;5.30;;;21.90;75.30;;;;;;5070332;28;20198;-80
2022/09/09 01:24:13;;;;;;;9.57;5.07;;;21.90;75.60;;;;;;5063019;28;20233;-79
2022/09/09 01:26:44;;;;;;;10.32;5.88;;;21.80;75.90;;;;;;5066671;28;20670;-79
2022/09/09 01:29:14;;;;;;;9.23;6.32;;;21.80;75.90;;;;;;5066316;28;20194;-79
2022/09/09 01:32:42;;;;;;;11.50;6.32;;;21.80;76.00;;;;;;5064871;28;20205;-79
2022/09/09 01:35:43;;;;;;;12.27;6.50;;;21.70;76.20;;;;;;5065935;28;20340;-79
2022/09/09 01:38:12;;;;;;;12.38;6.40;;;21.70;76.30;;;;;;5067570;28;20218;-79
2022/09/09 01:40:40;;;;;;;14.80;6.60;;;21.60;76.40;;;;;;5064513;28;20639;-79
2022/09/09 01:43:10;;;;;;;9.45;6.43;;;21.60;76.60;;;;;;5069481;28;20218;-79
2022/09/09 01:45:40;;;;;;;13.55;7.25;;;21.60;76.80;;;;;;5069753;28;20199;-79
2022/09/09 01:48:08;;;;;;;11.38;5.78;;;21.50;77.80;;;;;;5070102;28;20192;-79
2022/09/09 01:50:37;;;;;;;13.18;6.32;;;21.50;77.10;;;;;;5073115;28;20241;-79
2022/09/09 01:53:05;;;;;;;13.80;6.45;;;21.50;77.40;;;;;;5072216;28;20198;-79
2022/09/09 01:55:38;;;;;;;9.65;6.40;;;21.50;77.40;;;;;;5069023;28;20194;-79
2022/09/09 01:58:21;;;;;;;12.07;6.55;;;21.50;77.60;;;;;;5068564;28;20218;-80
2022/09/09 02:00:58;;;;;;;15.45;6.68;;;21.50;77.70;;;;;;5068924;28;20244;-79
2022/09/09 02:03:29;;;;;;;10.82;6.28;;;21.40;77.60;;;;;;5071587;28;20219;-78
2022/09/09 02:06:05;;;;;;;11.35;7.30;;;21.40;77.70;;;;;;5067444;28;20642;-78
2022/09/09 02:08:39;;;;;;;12.70;7.35;;;21.40;77.90;;;;;;5072662;28;20266;-79
2022/09/09 02:11:12;;;;;;;9.32;6.57;;;21.40;78.00;;;;;;5071115;28;20708;-80
2022/09/09 02:13:43;;;;;;;13.43;6.70;;;21.40;78.20;;;;;;5070437;28;20197;-79
2022/09/09 02:16:18;;;;;;;10.43;6.20;;;21.30;78.30;;;;;;5066062;28;20666;-78
2022/09/09 02:18:52;;;;;;;10.63;6.63;;;21.30;78.40;;;;;;5073379;28;20190;-79
2022/09/09 02:21:21;;;;;;;12.93;6.60;;;21.30;78.50;;;;;;5071167;28;20699;-79
2022/09/09 02:23:51;;;;;;;9.90;6.78;;;21.30;78.70;;;;;;5069245;28;20225;-79
2022/09/09 02:26:23;;;;;;;12.88;6.72;;;21.30;78.90;;;;;;5068972;28;20194;-78
2022/09/09 02:28:56;;;;;;;14.80;6.93;;;21.30;78.90;;;;;;5063055;28;20725;-79
2022/09/09 02:31:26;;;;;;;12.38;6.63;;;21.20;79.10;;;;;;5064827;28;20213;-79
2022/09/09 02:33:58;;;;;;;14.85;7.63;;;21.20;79.10;;;;;;5071683;28;20229;-80
2022/09/09 02:36:33;;;;;;;14.10;7.67;;;21.20;79.30;;;;;;5068385;28;20436;-80
2022/09/09 02:39:02;;;;;;;18.15;7.90;;;21.20;81.10;;;;;;5057692;28;20653;-79
2022/09/09 02:41:34;;;;;;;11.07;6.50;;;21.10;80.70;;;;;;5065499;28;20197;-79
2022/09/09 02:44:07;;;;;;;10.93;6.43;;;21.20;80.50;;;;;;5071066;28;20222;-79
2022/09/09 02:46:52;;;;;;;11.07;6.57;;;21.10;80.40;;;;;;5049091;28;20244;-79
2022/09/09 02:49:26;;;;;;;11.25;6.80;;;21.10;80.40;;;;;;5066771;28;20625;-79
2022/09/09 02:52:02;;;;;;;11.60;6.73;;;21.10;80.40;;;;;;5070724;28;20638;-79
2022/09/09 02:54:33;;;;;;;11.95;7.50;;;21.10;80.50;;;;;;5067719;28;20254;-77
2022/09/09 02:57:06;;;;;;;13.50;7.28;;;21.00;80.50;;;;;;5068898;28;20246;-79
2022/09/09 02:59:36;;;;;;;11.20;6.73;;;21.00;80.70;;;;;;5067743;28;20182;-79
2022/09/09 03:02:05;;;;;;;10.93;7.27;;;21.00;80.90;;;;;;5071355;28;20232;-80
2022/09/09 03:04:33;;;;;;;11.40;7.10;;;20.90;80.90;;;;;;5065650;28;20217;-79
2022/09/09 03:07:03;;;;;;;11.93;6.77;;;20.90;81.00;;;;;;5071561;28;20190;-79
2022/09/09 03:09:32;;;;;;;13.57;7.15;;;20.90;81.00;;;;;;5066517;28;20218;-79
2022/09/09 03:12:00;;;;;;;15.93;8.15;;;20.90;81.00;;;;;;5071609;28;20263;-79
2022/09/09 03:14:28;;;;;;;15.43;7.45;;;20.90;81.20;;;;;;5067526;28;20613;-79
2022/09/09 03:17:00;;;;;;;13.10;7.32;;;20.90;81.30;;;;;;5069288;28;20190;-79
2022/09/09 03:19:29;;;;;;;11.10;6.90;;;20.90;81.40;;;;;;5066768;28;20735;-79
2022/09/09 03:21:58;;;;;;;10.75;6.90;;;20.80;81.40;;;;;;5074061;28;20248;-79
2022/09/09 03:24:26;;;;;;;11.63;6.82;;;20.80;81.40;;;;;;5069473;28;21593;-79
2022/09/09 03:26:55;;;;;;;10.83;7.13;;;20.80;81.50;;;;;;5065036;28;20248;-78
2022/09/09 03:29:23;;;;;;;18.57;7.83;;;20.80;81.70;;;;;;5068767;28;20189;-79
2022/09/09 03:31:52;;;;;;;13.93;6.47;;;20.80;81.80;;;;;;5064036;28;20659;-79
2022/09/09 03:34:22;;;;;;;10.20;7.22;;;20.80;81.90;;;;;;5072548;28;20230;-78
2022/09/09 03:36:50;;;;;;;13.07;7.60;;;20.80;82.00;;;;;;5069149;28;20237;-79
2022/09/09 03:39:24;;;;;;;13.80;7.97;;;20.70;82.00;;;;;;5063597;28;20221;-78
2022/09/09 03:41:54;;;;;;;14.20;7.40;;;20.70;82.10;;;;;;5067456;28;20193;-79
2022/09/09 03:44:22;;;;;;;15.00;7.07;;;20.70;82.20;;;;;;5069662;28;20218;-78
2022/09/09 03:46:51;;;;;;;16.03;7.63;;;20.70;82.20;;;;;;5065810;28;20198;-79
2022/09/09 03:49:21;;;;;;;12.17;7.60;;;20.70;82.30;;;;;;5069855;28;20256;-79
2022/09/09 03:51:50;;;;;;;10.90;7.27;;;20.70;82.60;;;;;;5059662;28;20701;-78
2022/09/09 03:54:18;;;;;;;8.97;6.60;;;20.70;82.70;;;;;;5072106;28;20230;-79
2022/09/09 03:56:46;;;;;;;19.33;7.53;;;20.60;82.60;;;;;;5069583;28;20263;-79
2022/09/09 03:59:15;;;;;;;15.10;7.27;;;20.60;82.60;;;;;;5070349;28;20190;-79
2022/09/09 04:01:44;;;;;;;16.43;8.00;;;20.60;82.70;;;;;;5068702;28;20670;-79
2022/09/09 04:04:12;;;;;;;12.57;7.10;;;20.60;82.80;;;;;;5070543;28;20268;-79
2022/09/09 04:06:42;;;;;;;13.40;7.13;;;20.60;82.80;;;;;;5070455;28;20189;-79
2022/09/09 04:09:10;;;;;;;12.00;7.27;;;20.60;83.70;;;;;;5069789;28;20191;-79
2022/09/09 04:11:38;;;;;;;14.67;7.27;;;20.60;82.90;;;;;;5071046;28;20632;-79
2022/09/09 04:14:07;;;;;;;16.83;7.20;;;20.60;83.00;;;;;;5060375;28;20689;-78
2022/09/09 04:16:36;;;;;;;14.13;7.80;;;20.70;83.20;;;;;;5068220;28;20639;-78
2022/09/09 04:19:06;;;;;;;11.80;6.97;;;20.60;83.40;;;;;;5066769;28;20191;-78
2022/09/09 04:21:34;;;;;;;11.30;6.23;;;20.70;84.00;;;;;;5072270;28;20233;-78
2022/09/09 04:24:04;;;;;;;11.17;6.67;;;20.60;83.90;;;;;;5070094;28;20229;-78
2022/09/09 04:26:33;;;;;;;11.77;6.30;;;20.70;84.00;;;;;;5069691;28;20195;-78
2022/09/09 04:29:01;;;;;;;13.07;6.50;;;20.70;84.40;;;;;;5066604;28;20213;-78
2022/09/09 04:31:29;;;;;;;16.97;8.23;;;20.70;84.90;;;;;;5062338;28;20199;-78
2022/09/09 04:33:58;;;;;;;20.57;9.60;;;20.70;85.00;;;;;;5073416;28;20735;-78
2022/09/09 04:36:26;;;;;;;19.77;8.83;;;20.70;85.00;;;;;;5066459;28;21733;-79
2022/09/09 04:38:55;;;;;;;16.37;8.37;;;20.80;85.00;;;;;;5066276;28;20214;-78
2022/09/09 04:41:25;;;;;;;13.00;7.30;;;20.80;85.20;;;;;;5055982;28;20199;-79
2022/09/09 04:43:53;;;;;;;16.33;7.47;;;20.80;85.80;;;;;;5053203;28;20198;-77
2022/09/09 04:46:22;;;;;;;19.07;7.47;;;20.80;85.50;;;;;;5068952;28;20651;-77
2022/09/09 04:48:52;;;;;;;15.90;7.00;;;20.80;85.70;;;;;;5065010;28;20194;-77
2022/09/09 04:51:20;;;;;;;16.23;6.97;;;20.80;85.80;;;;;;5067163;28;20267;-79
2022/09/09 04:53:50;;;;;;;12.37;6.57;;;20.90;86.00;;;;;;5070728;28;20190;-80
2022/09/09 04:56:20;;;;;;;10.93;5.97;;;20.90;85.80;;;;;;5067721;28;20190;-78
2022/09/09 04:58:50;;;;;;;12.07;6.00;;;20.90;86.10;;;;;;5063085;28;20254;-78
2022/09/09 05:01:21;;;;;;;10.53;6.40;;;21.00;86.10;;;;;;5068838;28;20316;-78
2022/09/09 05:03:49;;;;;;;15.63;6.07;;;21.00;85.90;;;;;;5068181;28;20947;-78
2022/09/09 05:06:19;;;;;;;13.52;5.85;;;21.00;86.00;;;;;;5066236;28;20263;-77
2022/09/09 05:08:49;;;;;;;10.85;5.65;;;21.10;85.80;;;;;;5071529;28;20642;-78
2022/09/09 05:11:19;;;;;;;7.22;4.63;;;21.10;85.70;;;;;;5071322;28;20225;-77
2022/09/09 05:13:49;;;;;;;11.98;6.15;;;21.20;85.50;;;;;;5072864;28;20199;-77
2022/09/09 05:16:20;;;;;;;10.93;4.38;;;21.30;85.40;;;;;;5069724;28;20247;-78
2022/09/09 05:18:48;;;;;;;13.50;4.90;;;21.40;85.20;;;;;;5070093;28;20226;-78
2022/09/09 05:21:19;;;;;;;12.05;5.00;;;21.50;85.10;;;;;;5068034;28;20212;-79
2022/09/09 05:23:47;;;;;;;12.05;5.30;;;21.50;84.90;;;;;;5071533;28;20221;-78
2022/09/09 05:26:18;;;;;;;8.43;4.68;;;21.60;84.70;;;;;;5062884;28;20218;-80
2022/09/09 05:28:47;;;;;;;8.85;5.45;;;21.70;84.70;;;;;;5066808;28;20202;-78
2022/09/09 05:31:18;;;;;;;7.72;4.85;;;21.70;84.40;;;;;;5069202;28;20214;-77
2022/09/09 05:33:49;;;;;;;10.57;5.40;;;21.70;84.10;;;;;;5063796;28;20285;-79
2022/09/09 05:36:18;;;;;;;8.43;4.40;;;21.80;84.10;;;;;;5069579;28;20183;-79
2022/09/09 05:38:47;;;;;;;9.75;4.97;;;21.80;84.00;;;;;;5067309;28;20187;-79
2022/09/09 05:41:17;;;;;;;7.07;4.20;;;21.90;83.80;;;;;;5069761;28;20651;-78
2022/09/09 05:43:46;;;;;;;10.80;5.10;;;21.90;83.50;;;;;;5070668;28;20239;-77
2022/09/09 05:46:16;;;;;;;10.82;5.28;;;22.00;83.40;;;;;;5068012;28;20240;-78
2022/09/09 05:48:47;;;;;;;8.68;4.60;;;22.10;83.40;;;;;;5062551;28;20194;-77
2022/09/09 05:51:17;;;;;;;8.02;4.03;;;22.10;83.30;;;;;;5070049;28;20278;-79
2022/09/09 05:53:46;;;;;;;9.45;4.38;;;22.20;83.60;;;;;;5061698;28;20233;-79
2022/09/09 05:56:17;;;;;;;6.50;4.03;;;22.20;83.00;;;;;;5068978;28;20256;-78
2022/09/09 05:58:47;;;;;;;6.68;4.20;;;22.30;82.80;;;;;;5065055;28;20245;-77
2022/09/09 06:01:17;;;;;;;8.35;4.30;;;22.30;82.70;;;;;;5067821;28;20242;-79
2022/09/09 06:03:48;;;;;;;6.75;3.72;;;22.40;82.40;;;;;;5064348;28;20225;-78
2022/09/09 06:06:20;;;;;;;9.73;4.22;;;22.50;82.10;;;;;;5068206;28;20769;-79
2022/09/09 06:08:51;;;;;;;10.35;4.45;;;22.60;81.90;;;;;;5070742;28;20198;-78
2022/09/09 06:11:21;;;;;;;8.60;3.60;;;22.60;81.60;;;;;;5068470;28;20562;-79
2022/09/09 06:13:51;;;;;;;4.60;3.00;;;22.70;81.20;;;;;;5068444;28;20655;-78
2022/09/09 06:16:22;;;;;;;6.93;2.97;;;22.80;80.70;;;;;;5070270;28;20651;-78
2022/09/09 06:18:53;;;;;;;12.27;3.40;;;22.90;80.40;;;;;;5067543;28;20285;-78
2022/09/09 06:21:23;;;;;;;5.88;3.20;;;23.00;79.80;;;;;;5063575;28;20232;-78
2022/09/09 06:23:52;;;;;;;6.38;3.10;;;23.00;79.30;;;;;;5067292;28;20226;-78
2022/09/09 06:26:27;;;;;;;5.70;3.45;;;23.10;79.00;;;;;;5066495;28;20219;-77
2022/09/09 06:28:57;;;;;;;6.60;3.28;;;23.20;78.70;;;;;;5072065;28;20194;-78
2022/09/09 06:31:30;;;;;;;6.40;2.95;;;23.20;78.50;;;;;;5071045;28;20183;-78
2022/09/09 06:34:00;;;;;;;7.63;2.80;;;23.30;78.20;;;;;;5074286;28;20212;-78
2022/09/09 06:36:30;;;;;;;5.40;2.72;;;23.40;78.00;;;;;;5073992;28;20262;-78
2022/09/09 06:38:59;;;;;;;7.70;2.80;;;23.40;77.60;;;;;;5075251;28;20199;-78
2022/09/09 06:41:29;;;;;;;5.78;3.15;;;23.50;77.20;;;;;;5071864;28;20195;-77
2022/09/09 06:43:58;;;;;;;5.68;3.30;;;23.50;77.70;;;;;;5074673;28;20218;-78
2022/09/09 06:46:28;;;;;;;7.07;2.80;;;23.60;76.80;;;;;;5073771;28;20218;-80
2022/09/09 06:48:59;;;;;;;4.05;2.63;;;23.60;75.80;;;;;;5054936;28;20199;-79
2022/09/09 06:51:30;;;;;;;5.18;2.88;;;23.70;75.20;;;;;;5065599;28;20248;-79
2022/09/09 06:54:02;;;;;;;10.50;3.55;;;23.80;75.00;;;;;;5073315;28;20219;-78
2022/09/09 06:56:32;;;;;;;4.25;2.97;;;23.80;74.40;;;;;;5072943;28;20201;-79
2022/09/09 06:59:03;;;;;;;5.53;2.70;;;23.90;74.60;;;;;;5059731;28;20599;-78
2022/09/09 07:01:34;;;;;;;8.07;3.08;;;24.00;74.60;;;;;;5072660;28;20592;-78
2022/09/09 07:04:04;;;;;;;7.85;2.88;;;24.00;75.10;;;;;;5074216;28;20198;-79
2022/09/09 07:06:35;;;;;;;6.90;2.58;;;24.10;73.80;;;;;;5070628;28;20218;-78
2022/09/09 07:09:05;;;;;;;4.93;2.60;;;24.20;73.70;;;;;;5070501;28;20275;-79
2022/09/09 07:11:37;;;;;;;7.97;3.08;;;24.30;73.10;;;;;;5072494;28;20190;-79
2022/09/09 07:14:06;;;;;;;6.35;2.65;;;24.30;73.00;;;;;;5074969;28;20242;-79
2022/09/09 07:16:36;;;;;;;6.88;2.83;;;24.40;72.50;;;;;;5073342;28;20651;-79
2022/09/09 07:19:05;;;;;;;8.98;2.80;;;24.50;72.50;;;;;;5070822;28;20654;-79
2022/09/09 07:21:35;;;;;;;3.85;2.50;;;24.50;72.20;;;;;;5073348;28;20191;-80
2022/09/09 07:24:07;;;;;;;5.35;2.85;;;24.60;71.90;;;;;;5071048;28;20190;-80
2022/09/09 07:26:35;;;;;;;7.63;3.15;;;24.60;71.70;;;;;;5073337;28;20225;-80
2022/09/09 07:29:04;;;;;;;8.27;2.97;;;24.70;71.20;;;;;;5071274;28;20651;-79
2022/09/09 07:31:35;;;;;;;12.15;3.75;;;24.80;70.80;;;;;;5068132;28;20187;-79
2022/09/09 07:34:04;;;;;;;6.35;3.05;;;24.80;70.50;;;;;;5055017;28;20179;-79
2022/09/09 07:36:35;;;;;;;8.00;2.90;;;24.90;70.70;;;;;;5054733;28;20248;-78
2022/09/09 07:39:06;;;;;;;11.93;3.30;;;24.90;70.70;;;;;;5070295;28;20186;-78
2022/09/09 07:41:37;;;;;;;6.85;2.70;;;25.00;71.30;;;;;;5069959;28;20564;-77
2022/09/09 07:44:07;;;;;;;4.35;2.83;;;25.00;70.60;;;;;;5070672;28;20252;-76
2022/09/09 07:46:37;;;;;;;6.90;2.78;;;25.10;70.70;;;;;;5061765;28;20675;-77
2022/09/09 07:49:05;;;;;;;5.95;2.72;;;25.20;70.30;;;;;;5072373;28;20205;-77
2022/09/09 07:51:37;;;;;;;5.00;2.45;;;25.20;69.90;;;;;;5069753;28;20471;-78
2022/09/09 07:54:09;;;;;;;5.93;2.92;;;25.30;68.70;;;;;;5072801;28;20190;-78
2022/09/09 07:56:39;;;;;;;8.23;2.88;;;25.30;68.80;;;;;;5072606;28;20577;-79
2022/09/09 07:59:08;;;;;;;7.10;3.20;;;25.40;68.80;;;;;;5068804;28;20194;-80
2022/09/09 08:01:39;;;;;;;9.75;2.78;;;25.40;68.30;;;;;;5069046;28;20195;-78
2022/09/09 08:04:10;;;;;;;4.80;2.30;;;25.40;68.00;;;;;;5073368;28;20202;-78
2022/09/09 08:06:42;;;;;;;9.02;2.83;;;25.50;68.00;;;;;;5071300;28;20217;-78
2022/09/09 08:09:11;;;;;;;9.45;2.97;;;25.50;67.70;;;;;;5067663;28;20602;-78
2022/09/09 08:11:41;;;;;;;7.20;2.75;;;25.60;67.90;;;;;;5071988;28;20187;-79
2022/09/09 08:14:10;;;;;;;7.95;2.92;;;25.60;67.70;;;;;;5038641;28;20191;-78
2022/09/09 08:16:42;;;;;;;5.93;2.60;;;25.70;67.90;;;;;;5069602;28;20202;-79
2022/09/09 08:19:11;;;;;;;14.00;2.83;;;25.80;67.80;;;;;;5071192;28;20215;-77
2022/09/09 08:21:41;;;;;;;7.57;2.83;;;25.80;67.70;;;;;;5067436;28;20195;-77
2022/09/09 08:24:11;;;;;;;4.50;2.60;;;25.90;67.60;;;;;;5058307;28;20203;-76
2022/09/09 08:26:42;;;;;;;4.43;2.58;;;26.00;67.20;;;;;;5053696;28;20273;-77
2022/09/09 08:29:12;;;;;;;5.25;2.70;;;26.10;67.00;;;;;;5053614;28;20221;-77
2022/09/09 08:31:43;;;;;;;5.07;2.72;;;26.10;66.60;;;;;;5053458;28;20194;-77
2022/09/09 08:34:12;;;;;;;7.50;3.22;;;26.20;66.60;;;;;;5060721;28;20186;-80
2022/09/09 08:36:44;;;;;;;5.43;3.05;;;26.30;66.60;;;;;;5070143;28;20190;-77
2022/09/09 08:39:13;;;;;;;6.82;2.92;;;26.40;66.90;;;;;;5071469;28;20708;-77
2022/09/09 08:42:13;;;;;;;6.90;2.50;;;26.50;66.90;;;;;;5063809;28;20277;-78
2022/09/09 08:45:02;;;;;;;10.60;3.22;;;26.50;66.70;;;;;;5064581;28;20639;-76
2022/09/09 08:47:42;;;;;;;9.32;2.78;;;26.60;66.30;;;;;;5062372;28;20241;-78
2022/09/09 08:50:21;;;;;;;10.63;2.58;;;26.70;66.00;;;;;;5068990;28;20186;-78
2022/09/09 08:52:57;;;;;;;10.23;3.30;;;26.80;65.90;;;;;;5066563;28;20190;-79
2022/09/09 08:55:41;;;;;;;8.90;2.95;;;26.80;65.90;;;;;;5063928;28;20292;-79
2022/09/09 08:58:14;;;;;;;4.95;2.75;;;26.90;65.90;;;;;;5066193;28;20681;-80
2022/09/09 09:01:03;;;;;;;5.78;2.60;;;26.90;65.60;;;;;;5067773;28;20191;-78
2022/09/09 09:03:42;;;;;;;4.45;2.45;;;27.10;65.30;;;;;;5052867;28;20558;-78
2022/09/09 09:06:35;;;;;;;6.30;3.40;;;27.10;65.20;;;;;;5064948;28;20244;-78
2022/09/09 09:09:13;;;;;;;9.30;3.03;;;27.10;64.90;;;;;;5061946;28;20655;-79
2022/09/09 09:11:47;;;;;;;10.65;3.17;;;27.20;65.20;;;;;;5068156;28;20186;-79
2022/09/09 09:14:23;;;;;;;10.60;2.65;;;27.30;65.60;;;;;;5071532;28;20658;-79
2022/09/09 09:16:55;;;;;;;8.13;3.40;;;27.30;65.00;;;;;;5069413;28;20190;-79
2022/09/09 09:19:26;;;;;;;7.65;2.72;;;27.40;64.50;;;;;;5062717;28;20190;-78
2022/09/09 09:22:02;;;;;;;5.70;2.72;;;27.40;64.30;;;;;;5068471;28;20822;-78
2022/09/09 09:24:42;;;;;;;10.02;2.88;;;27.50;64.20;;;;;;5062652;28;20218;-78
2022/09/09 09:27:19;;;;;;;5.47;2.83;;;27.60;64.10;;;;;;5067787;28;20214;-78
2022/09/09 09:29:52;;;;;;;7.93;2.88;;;27.60;63.60;;;;;;5068164;28;20216;-78
2022/09/09 09:32:41;;;;;;;16.13;5.20;;;27.70;63.20;;;;;;5066619;28;20563;-78
2022/09/09 09:35:14;;;;;;;7.68;2.95;;;27.80;64.30;;;;;;5069177;28;20229;-78
2022/09/09 09:37:44;;;;;;;3.95;2.53;;;27.80;62.70;;;;;;5064018;28;20194;-77
2022/09/09 09:40:34;;;;;;;7.70;2.83;;;27.90;63.00;;;;;;5062951;28;20585;-78
2022/09/09 09:43:07;;;;;;;6.72;3.53;;;27.90;62.40;;;;;;5068170;28;20260;-77
2022/09/09 09:45:44;;;;;;;7.32;2.72;;;28.00;62.20;;;;;;5067759;28;20189;-78
2022/09/09 09:48:33;;;;;;;6.75;4.40;;;28.10;62.20;;;;;;5069405;28;20268;-78
2022/09/09 09:51:07;;;;;;;7.05;3.17;;;28.20;62.30;;;;;;5060236;28;21335;-76
2022/09/09 09:53:38;;;;;;;5.45;3.53;;;28.30;61.80;;;;;;5062338;28;20193;-80
2022/09/09 09:56:11;;;;;;;12.00;3.45;;;28.30;61.30;;;;;;5070039;28;20225;-79
2022/09/09 09:58:51;;;;;;;12.40;3.42;;;28.40;60.20;;;;;;5066651;28;20214;-79
2022/09/09 10:01:21;;;;;;;6.40;2.72;;;28.50;60.30;;;;;;5067002;28;20186;-78
2022/09/09 10:03:53;;;;;;;6.07;3.58;;;28.50;60.80;;;;;;5065619;28;20227;-79
2022/09/09 10:06:32;;;;;;;14.40;4.13;;;28.60;61.10;;;;;;5065912;28;20647;-78
2022/09/09 10:09:02;;;;;;;6.55;2.78;;;28.70;60.70;;;;;;5071766;28;20206;-77
2022/09/09 10:11:46;;;;;;;9.05;3.83;;;28.80;60.80;;;;;;5072342;28;20198;-78
2022/09/09 10:14:22;;;;;;;7.85;3.65;;;28.80;60.50;;;;;;5068740;28;20194;-79
2022/09/09 10:17:13;;;;;;;7.38;3.10;;;28.90;60.60;;;;;;5061006;28;20466;-76
2022/09/09 10:19:52;;;;;;;10.27;5.22;;;28.90;60.80;;;;;;5067234;28;20703;-78
2022/09/09 10:22:27;;;;;;;11.25;6.65;;;28.90;60.50;;;;;;5070495;28;20199;-78
2022/09/09 10:25:21;;;;;;;7.90;4.50;;;29.00;60.80;;;;;;5073124;28;20190;-78
2022/09/09 10:28:11;;;;;;;12.25;3.88;;;29.00;60.60;;;;;;5070922;28;20231;-77
2022/09/09 10:30:52;;;;;;;12.05;6.68;;;29.00;60.30;;;;;;5070695;28;20232;-77
2022/09/09 10:33:28;;;;;;;10.60;5.13;;;29.00;60.30;;;;;;5075135;28;20606;-77
2022/09/09 10:36:06;;;;;;;6.20;3.03;;;29.00;60.30;;;;;;5071612;28;20194;-78
2022/09/09 10:38:43;;;;;;;11.88;4.95;;;29.10;60.10;;;;;;5073018;28;20566;-79
2022/09/09 10:41:19;;;;;;;7.80;3.72;;;29.10;60.50;;;;;;5072478;28;20190;-78
2022/09/09 10:44:12;;;;;;;7.60;3.75;;;29.10;60.40;;;;;;5063980;28;20527;-78
2022/09/09 10:46:51;;;;;;;5.80;3.10;;;29.20;60.30;;;;;;5064954;28;20607;-78
2022/09/09 10:49:33;;;;;;;13.82;4.10;;;29.20;60.10;;;;;;5071700;28;20670;-78
2022/09/09 10:52:10;;;;;;;13.15;3.10;;;29.20;59.90;;;;;;5068892;28;20191;-78
2022/09/09 10:54:53;;;;;;;7.93;3.15;;;29.30;59.70;;;;;;5070679;28;20189;-78
2022/09/09 10:57:30;;;;;;;6.18;3.88;;;29.30;59.50;;;;;;5068694;28;20698;-80
2022/09/09 11:00:05;;;;;;;8.82;3.67;;;29.40;59.40;;;;;;5059281;28;20195;-79
2022/09/09 11:02:35;;;;;;;8.18;3.53;;;29.40;58.70;;;;;;5065619;28;20239;-79
2022/09/09 11:05:09;;;;;;;10.07;5.10;;;29.40;59.10;;;;;;5060919;28;20267;-78
2022/09/09 11:07:43;;;;;;;17.35;8.07;;;29.40;59.20;;;;;;5070471;28;20201;-77
2022/09/09 11:10:23;;;;;;;13.55;5.78;;;29.50;59.30;;;;;;5063214;28;20257;-77
2022/09/09 11:12:57;;;;;;;10.27;4.68;;;29.50;59.10;;;;;;5066453;28;20236;-77
2022/09/09 11:15:34;;;;;;;12.52;5.70;;;29.50;58.90;;;;;;5065003;28;20190;-78
2022/09/09 11:18:05;;;;;;;9.10;4.95;;;29.50;58.40;;;;;;5064203;28;20186;-78
2022/09/09 11:20:34;;;;;;;11.68;3.90;;;29.50;58.40;;;;;;5063074;28;20480;-77
2022/09/09 11:23:10;;;;;;;9.43;4.90;;;29.60;58.20;;;;;;5071837;28;20267;-78
2022/09/09 11:25:41;;;;;;;11.43;5.13;;;29.60;58.20;;;;;;5071895;28;20646;-77
2022/09/09 11:28:37;;;;;;;5.80;3.97;;;29.60;57.60;;;;;;5073271;28;20584;-78
2022/09/09 11:31:26;;;;;;;8.70;3.85;;;29.60;57.60;;;;;;5072518;28;20553;-78
2022/09/09 11:34:08;;;;;;;8.52;4.78;;;29.60;57.60;;;;;;5073046;28;20186;-78
2022/09/09 11:37:02;;;;;;;11.35;3.95;;;29.60;58.00;;;;;;5071658;28;20675;-78
2022/09/09 11:40:10;;;;;;;4.13;2.83;;;29.60;57.90;;;;;;5067030;28;20288;-79
2022/09/09 11:42:39;;;;;;;9.70;5.00;;;29.70;57.90;;;;;;5067234;28;20190;-78
2022/09/09 11:45:12;;;;;;;11.75;6.10;;;29.70;57.80;;;;;;5070799;28;20558;-78
2022/09/09 11:47:54;;;;;;;8.13;3.13;;;29.70;57.70;;;;;;5067542;28;20286;-78
2022/09/09 11:50:35;;;;;;;9.40;5.70;;;29.70;57.70;;;;;;5061602;28;20257;-77
2022/09/09 11:53:16;;;;;;;8.13;5.30;;;29.70;57.80;;;;;;5068760;28;20197;-78
2022/09/09 11:55:44;;;;;;;6.80;3.90;;;29.70;57.60;;;;;;5071616;28;20226;-78
2022/09/09 11:58:20;;;;;;;6.57;3.17;;;29.80;57.60;;;;;;5067612;28;20272;-77
2022/09/09 12:00:49;;;;;;;11.63;5.55;;;29.80;57.40;;;;;;5061824;28;20198;-78
2022/09/09 12:03:41;;;;;;;8.10;3.30;;;29.80;57.50;;;;;;5062575;28;20199;-77
2022/09/09 12:06:16;;;;;;;11.00;6.88;;;29.80;57.30;;;;;;5069609;28;20213;-77
2022/09/09 12:08:47;;;;;;;10.68;3.13;;;29.80;57.20;;;;;;5072353;28;20202;-77
2022/09/09 12:11:26;;;;;;;11.13;4.45;;;29.80;57.00;;;;;;5070077;28;20610;-77
2022/09/09 12:13:56;;;;;;;9.07;3.60;;;29.90;56.90;;;;;;5066937;28;20714;-76
2022/09/09 12:16:32;;;;;;;7.65;3.35;;;29.90;57.20;;;;;;5063743;28;20305;-76
2022/09/09 12:19:16;;;;;;;12.57;4.45;;;30.00;57.20;;;;;;5068317;28;20248;-77
2022/09/09 12:21:52;;;;;;;9.48;3.40;;;30.00;57.30;;;;;;5071835;28;20243;-77
2022/09/09 12:24:28;;;;;;;11.52;5.72;;;30.10;57.40;;;;;;5063439;28;20221;-77
2022/09/09 12:27:02;;;;;;;11.25;5.18;;;30.10;57.20;;;;;;5063179;28;20570;-78
2022/09/09 12:29:39;;;;;;;11.60;3.35;;;30.20;57.20;;;;;;5070643;28;20692;-78
2022/09/09 12:32:12;;;;;;;12.07;7.88;;;30.10;56.80;;;;;;5068384;28;20189;-77
2022/09/09 12:34:43;;;;;;;12.63;5.38;;;30.20;56.90;;;;;;5055730;28;20202;-77
2022/09/09 12:37:24;;;;;;;5.07;2.72;;;30.20;57.00;;;;;;5058785;28;20238;-77
2022/09/09 12:39:56;;;;;;;10.27;2.90;;;30.20;57.20;;;;;;5068817;28;20190;-77
2022/09/09 12:42:25;;;;;;;8.70;3.13;;;30.20;56.90;;;;;;5053082;28;20183;-75
2022/09/09 12:44:55;;;;;;;5.80;3.10;;;30.20;56.90;;;;;;5055009;28;20206;-77
2022/09/09 12:47:30;;;;;;;7.30;3.13;;;30.20;56.70;;;;;;5082704;28;20202;-75
2022/09/09 12:50:00;;;;;;;4.78;3.05;;;30.20;56.50;;;;;;5071524;28;20255;-75
2022/09/09 12:52:33;;;;;;;5.43;3.20;;;30.20;56.40;;;;;;5067024;28;20194;-76
2022/09/09 12:55:04;;;;;;;6.85;2.95;;;30.10;56.20;;;;;;5064844;28;20252;-77
2022/09/09 12:57:36;;;;;;;5.85;2.83;;;30.20;56.30;;;;;;5067271;28;20214;-77
2022/09/09 13:00:10;;;;;;;6.32;3.25;;;30.20;56.40;;;;;;5059863;28;20198;-77
2022/09/09 13:02:47;;;;;;;7.32;3.03;;;30.20;56.20;;;;;;5064343;28;20225;-76
2022/09/09 13:05:20;;;;;;;5.40;3.03;;;30.10;56.20;;;;;;5069805;28;20245;-77
2022/09/09 13:07:49;;;;;;;11.35;3.65;;;30.10;56.00;;;;;;5059302;28;20236;-76
2022/09/09 13:10:26;;;;;;;11.77;3.70;;;30.10;56.10;;;;;;5061831;28;20253;-75
2022/09/09 13:13:16;;;;;;;8.43;3.30;;;30.10;56.30;;;;;;5059164;28;20195;-76
2022/09/09 13:15:52;;;;;;;15.10;3.70;;;30.10;56.50;;;;;;5067629;28;20186;-76